createdAt,value
2022-11-24T00:00:42.325Z,15.65
2022-11-24T00:03:12.224Z,15.30
2022-11-24T00:05:42.120Z,15.60
2022-11-24T00:08:12.562Z,15.25
2022-11-24T00:10:43.411Z,15.88
2022-11-24T00:13:13.437Z,14.63
2022-11-24T00:15:43.338Z,14.98
2022-11-24T00:18:13.840Z,14.10
2022-11-24T00:20:43.812Z,14.87
2022-11-24T00:23:13.609Z,14.95
2022-11-24T00:25:43.620Z,14.23
2022-11-24T00:28:13.476Z,14.23
2022-11-24T00:30:43.771Z,14.52
2022-11-24T00:33:13.812Z,14.70
2022-11-24T00:35:43.678Z,14.88
2022-11-24T00:38:13.524Z,13.75
2022-11-24T00:40:43.596Z,15.70
2022-11-24T00:43:13.454Z,14.82
2022-11-24T00:45:44.844Z,14.48
2022-11-24T00:48:14.977Z,14.15
2022-11-24T00:50:44.869Z,14.40
2022-11-24T00:53:14.709Z,14.43
2022-11-24T00:55:44.542Z,15.48
2022-11-24T00:58:14.678Z,14.15
2022-11-24T01:00:44.531Z,14.48
2022-11-24T01:03:18.990Z,14.10
2022-11-24T01:05:49.182Z,15.40
2022-11-24T01:08:19.381Z,13.63
2022-11-24T01:10:49.471Z,13.95
2022-11-24T01:13:19.320Z,13.60
2022-11-24T01:15:49.416Z,14.50
2022-11-24T01:18:19.223Z,14.35
2022-11-24T01:20:49.057Z,14.13
2022-11-24T01:23:18.881Z,14.63
2022-11-24T01:25:48.692Z,14.02
2022-11-24T01:28:18.784Z,15.23
2022-11-24T01:30:49.649Z,14.55
2022-11-24T01:33:31.938Z,15.13
2022-11-24T01:36:02.362Z,16.17
2022-11-24T01:38:32.658Z,15.05
2022-11-24T01:41:14.602Z,15.35
2022-11-24T01:43:46.481Z,15.10
2022-11-24T01:46:21.983Z,14.20
2022-11-24T01:49:05.657Z,16.13
2022-11-24T01:51:39.126Z,15.48
2022-11-24T01:54:15.385Z,16.10
2022-11-24T01:56:51.895Z,15.00
2022-11-24T01:59:26.866Z,15.55
2022-11-24T02:01:58.650Z,15.23
2022-11-24T02:04:34.415Z,16.00
2022-11-24T02:07:07.992Z,15.68
2022-11-24T02:10:02.300Z,14.85
2022-11-24T02:12:32.527Z,14.93
2022-11-24T02:15:02.758Z,13.73
2022-11-24T02:17:32.847Z,13.52
2022-11-24T02:20:07.181Z,13.38
2022-11-24T02:22:59.598Z,12.80
2022-11-24T02:25:43.013Z,13.38
2022-11-24T02:28:17.909Z,14.00
2022-11-24T02:30:48.312Z,13.70
2022-11-24T02:33:19.215Z,12.47
2022-11-24T02:35:49.184Z,12.30
2022-11-24T02:38:19.089Z,13.55
2022-11-24T02:40:52.219Z,12.80
2022-11-24T02:43:25.532Z,11.25
2022-11-24T02:45:55.400Z,11.85
2022-11-24T02:48:25.294Z,11.07
2022-11-24T02:50:55.204Z,10.85
2022-11-24T02:53:25.169Z,10.73
2022-11-24T02:55:55.372Z,11.40
2022-11-24T02:58:25.444Z,10.70
2022-11-24T03:00:56.609Z,10.82
2022-11-24T03:05:57.772Z,9.52
2022-11-24T03:10:57.587Z,10.77
2022-11-24T03:13:27.429Z,10.68
2022-11-24T03:15:57.428Z,10.45
2022-11-24T03:18:27.350Z,9.40
2022-11-24T03:21:02.700Z,10.43
2022-11-24T03:23:32.780Z,10.20
2022-11-24T03:26:17.375Z,9.77
2022-11-24T03:28:47.547Z,10.18
2022-11-24T03:31:19.285Z,10.15
2022-11-24T03:33:49.375Z,9.82
2022-11-24T03:36:19.279Z,9.93
2022-11-24T03:38:49.175Z,9.43
2022-11-24T03:41:19.238Z,9.55
2022-11-24T03:43:49.098Z,8.80
2022-11-24T03:46:19.214Z,8.27
2022-11-24T03:48:49.328Z,9.05
2022-11-24T03:51:19.123Z,8.10
2022-11-24T03:53:49.030Z,8.35
2022-11-24T03:56:19.180Z,7.95
2022-11-24T03:58:49.040Z,7.82
2022-11-24T04:01:19.003Z,8.45
2022-11-24T04:03:48.887Z,7.70
2022-11-24T04:06:18.759Z,7.57
2022-11-24T04:08:48.663Z,7.45
2022-11-24T04:11:38.057Z,7.10
2022-11-24T04:14:13.228Z,7.20
2022-11-24T04:16:43.977Z,7.05
2022-11-24T04:19:14.423Z,7.40
2022-11-24T04:21:44.658Z,7.18
2022-11-24T04:24:14.959Z,6.80
2022-11-24T04:26:45.140Z,7.53
2022-11-24T04:29:15.333Z,6.90
2022-11-24T04:31:45.551Z,6.97
2022-11-24T04:34:15.793Z,7.18
2022-11-24T04:36:45.792Z,6.65
2022-11-24T04:39:24.790Z,6.72
2022-11-24T04:41:57.819Z,6.82
2022-11-24T04:44:28.041Z,6.53
2022-11-24T04:46:58.344Z,6.70
2022-11-24T04:49:28.552Z,6.28
2022-11-24T04:51:58.908Z,6.18
2022-11-24T04:54:29.166Z,7.10
2022-11-24T04:56:59.366Z,6.53
2022-11-24T04:59:29.663Z,6.40
2022-11-24T05:02:00.012Z,6.35
2022-11-24T05:04:30.297Z,6.38
2022-11-24T05:07:00.535Z,5.50
2022-11-24T05:09:54.899Z,6.28
2022-11-24T05:12:22.229Z,5.70
2022-11-24T05:14:54.184Z,6.85
2022-11-24T05:17:24.414Z,5.57
2022-11-24T05:19:54.599Z,6.13
2022-11-24T05:22:24.924Z,6.40
2022-11-24T05:24:55.176Z,6.03
2022-11-24T05:27:25.780Z,5.95
2022-11-24T05:29:56.140Z,6.10
2022-11-24T05:32:26.730Z,6.30
2022-11-24T05:34:57.083Z,5.50
2022-11-24T05:37:27.913Z,6.22
2022-11-24T05:39:58.132Z,6.00
2022-11-24T05:42:47.672Z,6.40
2022-11-24T05:45:21.509Z,5.50
2022-11-24T05:47:53.702Z,6.07
2022-11-24T05:50:25.317Z,6.10
2022-11-24T05:52:55.644Z,6.47
2022-11-24T05:55:25.832Z,5.57
2022-11-24T05:58:01.608Z,6.18
2022-11-24T06:00:33.719Z,5.97
2022-11-24T06:03:05.046Z,5.80
2022-11-24T06:05:35.533Z,5.85
2022-11-24T06:08:06.056Z,5.28
2022-11-24T06:10:36.359Z,5.60
2022-11-24T06:13:10.267Z,5.68
2022-11-24T06:15:42.526Z,5.60
2022-11-24T06:18:12.977Z,5.95
2022-11-24T06:20:49.107Z,5.75
2022-11-24T06:23:33.379Z,5.68
2022-11-24T06:26:04.233Z,5.82
2022-11-24T06:28:34.834Z,5.60
2022-11-24T06:31:06.787Z,6.03
2022-11-24T06:33:39.551Z,6.25
2022-11-24T06:36:15.190Z,6.20
2022-11-24T06:38:45.542Z,6.55
2022-11-24T06:41:17.975Z,6.05
2022-11-24T06:43:49.785Z,6.13
2022-11-24T06:46:20.129Z,6.43
2022-11-24T06:48:50.696Z,6.05
2022-11-24T06:51:21.261Z,6.50
2022-11-24T06:53:51.580Z,6.67
2022-11-24T06:56:23.168Z,5.90
2022-11-24T06:58:55.281Z,6.65
2022-11-24T07:01:28.264Z,5.63
2022-11-24T07:03:59.623Z,6.07
2022-11-24T07:09:00.899Z,6.37
2022-11-24T07:11:31.272Z,6.13
2022-11-24T07:14:03.262Z,5.82
2022-11-24T07:16:33.859Z,6.35
2022-11-24T07:19:05.041Z,5.87
2022-11-24T07:21:35.475Z,6.32
2022-11-24T07:24:06.471Z,5.75
2022-11-24T07:26:39.443Z,6.28
2022-11-24T07:29:09.648Z,5.80
2022-11-24T07:31:40.120Z,5.75
2022-11-24T07:34:10.394Z,5.43
2022-11-24T07:36:40.638Z,5.47
2022-11-24T07:39:10.841Z,5.35
2022-11-24T07:41:41.162Z,5.47
2022-11-24T07:44:11.420Z,5.45
2022-11-24T07:46:41.725Z,5.75
2022-11-24T07:49:11.961Z,5.75
2022-11-24T07:51:42.054Z,6.25
2022-11-24T07:54:12.556Z,5.82
2022-11-24T07:56:42.780Z,5.47
2022-11-24T07:59:12.936Z,5.60
2022-11-24T08:01:43.201Z,5.32
2022-11-24T08:04:13.411Z,5.65
2022-11-24T08:06:47.299Z,5.45
2022-11-24T08:09:17.930Z,5.22
2022-11-24T08:11:48.153Z,5.15
2022-11-24T08:14:18.390Z,4.97
2022-11-24T08:16:48.654Z,5.07
2022-11-24T08:19:18.845Z,5.32
2022-11-24T08:21:48.872Z,5.20
2022-11-24T08:24:19.312Z,5.22
2022-11-24T08:26:49.593Z,4.80
2022-11-24T08:29:19.765Z,5.40
2022-11-24T08:31:49.944Z,4.82
2022-11-24T08:34:20.138Z,4.97
2022-11-24T08:36:50.293Z,5.28
2022-11-24T08:39:21.300Z,5.00
2022-11-24T08:44:21.152Z,4.80
2022-11-24T08:46:52.432Z,5.03
2022-11-24T08:51:54.179Z,5.32
2022-11-24T08:54:25.178Z,5.00
2022-11-24T08:56:55.454Z,5.03
2022-11-24T08:59:25.788Z,4.63
2022-11-24T09:01:56.012Z,4.88
2022-11-24T09:04:26.316Z,5.10
2022-11-24T09:06:56.631Z,4.45
2022-11-24T09:09:26.850Z,5.15
2022-11-24T09:11:56.897Z,5.05
2022-11-24T09:14:27.010Z,5.13
2022-11-24T09:16:57.056Z,4.75
2022-11-24T09:19:27.203Z,5.28
2022-11-24T09:21:57.789Z,5.32
2022-11-24T09:24:28.511Z,5.13
2022-11-24T09:26:59.232Z,5.10
2022-11-24T09:29:29.410Z,4.83
2022-11-24T09:32:03.616Z,4.63
2022-11-24T09:34:37.027Z,4.90
2022-11-24T09:37:07.276Z,5.18
2022-11-24T09:39:37.511Z,4.85
2022-11-24T09:42:22.390Z,5.38
2022-11-24T09:44:55.405Z,4.93
2022-11-24T09:47:31.453Z,4.97
2022-11-24T09:50:14.196Z,4.50
2022-11-24T09:52:56.502Z,5.30
2022-11-24T09:55:29.661Z,5.00
2022-11-24T09:58:37.772Z,4.85
2022-11-24T10:01:17.501Z,4.90
2022-11-24T10:03:54.077Z,5.20
2022-11-24T10:06:41.439Z,4.93
2022-11-24T10:09:22.499Z,5.53
2022-11-24T10:12:24.591Z,5.50
2022-11-24T10:15:22.897Z,5.30
2022-11-24T10:17:52.988Z,6.00
2022-11-24T10:20:43.718Z,6.30
2022-11-24T10:23:25.728Z,6.00
2022-11-24T10:26:15.141Z,6.55
2022-11-24T10:28:54.786Z,6.30
2022-11-24T10:31:35.025Z,6.40
2022-11-24T10:34:20.480Z,5.95
2022-11-24T10:37:14.716Z,6.50
2022-11-24T10:39:59.877Z,6.88
2022-11-24T10:42:41.385Z,6.30
2022-11-24T10:45:24.976Z,6.15
2022-11-24T10:47:55.188Z,6.07
2022-11-24T10:50:35.134Z,6.35
2022-11-24T10:53:18.450Z,6.50
2022-11-24T10:55:58.069Z,6.03
2022-11-24T10:58:39.855Z,6.38
2022-11-24T11:01:16.217Z,5.55
2022-11-24T11:04:01.742Z,5.57
2022-11-24T11:06:33.843Z,5.30
2022-11-24T11:09:09.718Z,4.72
2022-11-24T11:11:44.744Z,4.18
2022-11-24T11:14:15.497Z,4.72
2022-11-24T11:16:57.905Z,5.00
2022-11-24T11:20:01.568Z,4.68
2022-11-24T11:22:40.462Z,4.68
2022-11-24T11:25:13.675Z,4.67
2022-11-24T11:27:44.407Z,4.90
2022-11-24T11:36:21.205Z,5.57
2022-11-24T11:38:51.441Z,5.30
2022-11-24T11:41:42.924Z,4.53
2022-11-24T11:44:46.604Z,4.57
2022-11-24T11:47:38.961Z,4.57
2022-11-24T11:50:19.811Z,3.90
2022-11-24T11:53:03.085Z,4.78
2022-11-24T11:55:50.113Z,4.45
2022-11-24T11:58:57.651Z,4.75
2022-11-24T12:01:30.900Z,4.07
2022-11-24T12:04:23.144Z,4.22
2022-11-24T12:07:40.527Z,3.90
2022-11-24T12:10:32.039Z,3.72
2022-11-24T12:13:19.852Z,3.90
2022-11-24T12:15:52.577Z,3.40
2022-11-24T12:18:59.991Z,3.50
2022-11-24T12:21:49.958Z,3.67
2022-11-24T12:24:41.022Z,3.40
2022-11-24T12:27:26.380Z,2.83
2022-11-24T12:30:11.970Z,2.90
2022-11-24T12:33:13.461Z,2.97
2022-11-24T12:35:48.889Z,3.42
2022-11-24T12:38:40.911Z,3.13
2022-11-24T12:41:45.613Z,3.60
2022-11-24T12:44:54.406Z,3.20
2022-11-24T12:47:32.012Z,3.53
2022-11-24T12:50:14.144Z,3.30
2022-11-24T12:52:57.182Z,3.08
2022-11-24T12:55:30.525Z,3.10
2022-11-24T12:58:26.991Z,3.45
2022-11-24T13:01:16.946Z,3.20
2022-11-24T13:04:01.233Z,2.97
2022-11-24T13:10:54.110Z,3.80
2022-11-24T13:13:20.303Z,4.38
2022-11-24T13:19:03.741Z,4.05
2022-11-24T13:21:53.152Z,3.67
2022-11-24T13:24:33.163Z,4.50
2022-11-24T13:27:19.002Z,4.10
2022-11-24T13:29:54.089Z,4.30
2022-11-24T13:32:24.489Z,3.65
2022-11-24T13:34:57.608Z,3.67
2022-11-24T13:37:34.261Z,4.30
2022-11-24T13:40:15.588Z,4.20
2022-11-24T13:43:01.107Z,3.95
2022-11-24T13:45:50.070Z,3.47
2022-11-24T13:48:23.617Z,4.00
2022-11-24T13:50:54.142Z,4.28
2022-11-24T13:53:36.411Z,4.10
2022-11-24T13:56:12.353Z,4.32
2022-11-24T13:58:53.531Z,3.85
2022-11-24T14:01:30.869Z,3.70
2022-11-24T14:04:32.317Z,4.20
2022-11-24T14:07:14.849Z,4.88
2022-11-24T14:09:48.286Z,3.88
2022-11-24T14:12:27.445Z,4.20
2022-11-24T14:15:23.194Z,3.92
2022-11-24T14:17:53.620Z,3.63
2022-11-24T14:20:29.230Z,3.85
2022-11-24T14:22:59.479Z,4.18
2022-11-24T14:25:33.498Z,4.40
2022-11-24T14:28:04.075Z,4.53
2022-11-24T14:30:34.468Z,4.40
2022-11-24T14:33:06.669Z,4.22
2022-11-24T14:35:38.325Z,4.40
2022-11-24T14:38:09.015Z,4.20
2022-11-24T14:40:50.837Z,4.82
2022-11-24T14:43:27.170Z,3.97
2022-11-24T14:46:07.415Z,4.28
2022-11-24T14:48:55.894Z,4.47
2022-11-24T14:51:33.671Z,4.28
2022-11-24T14:54:16.258Z,3.97
2022-11-24T14:57:00.997Z,4.20
2022-11-24T14:59:33.958Z,4.57
2022-11-24T15:02:05.198Z,4.13
2022-11-24T15:07:29.822Z,3.58
2022-11-24T15:10:03.249Z,4.03
2022-11-24T15:12:41.640Z,3.80
2022-11-24T15:15:14.751Z,3.60
2022-11-24T15:17:56.696Z,3.50
2022-11-24T15:20:37.536Z,4.57
2022-11-24T15:23:27.211Z,3.80
2022-11-24T15:26:24.793Z,4.05
2022-11-24T15:28:57.633Z,4.13
2022-11-24T15:31:28.157Z,4.33
2022-11-24T15:33:58.478Z,5.03
2022-11-24T15:36:28.902Z,3.97
2022-11-24T15:38:59.330Z,4.07
2022-11-24T15:41:33.071Z,3.87
2022-11-24T15:44:05.281Z,3.72
2022-11-24T15:46:40.824Z,3.92
2022-11-24T15:49:11.337Z,3.85
2022-11-24T15:51:45.908Z,4.55
2022-11-24T15:54:21.465Z,4.32
2022-11-24T15:56:51.894Z,3.55
2022-11-24T15:59:22.422Z,3.20
2022-11-24T16:01:53.052Z,3.60
2022-11-24T16:04:23.504Z,3.77
2022-11-24T16:06:53.945Z,3.80
2022-11-24T16:09:24.353Z,4.68
2022-11-24T16:11:54.847Z,4.00
2022-11-24T16:14:26.810Z,4.10
2022-11-24T16:16:57.180Z,3.73
2022-11-24T16:19:29.263Z,3.72
2022-11-24T16:21:59.593Z,3.42
2022-11-24T16:24:29.937Z,4.57
2022-11-24T16:27:00.380Z,3.72
2022-11-24T16:29:35.341Z,3.90
2022-11-24T16:32:08.861Z,3.70
2022-11-24T16:34:39.278Z,3.80
2022-11-24T16:37:09.633Z,4.00
2022-11-24T16:39:40.029Z,4.15
2022-11-24T16:42:10.771Z,4.10
2022-11-24T16:44:41.070Z,4.70
2022-11-24T16:47:11.800Z,4.22
2022-11-24T16:49:42.065Z,4.50
2022-11-24T16:52:12.499Z,4.10
2022-11-24T16:54:43.011Z,3.70
2022-11-24T16:57:15.239Z,4.00
2022-11-24T16:59:48.242Z,4.13
2022-11-24T17:02:19.013Z,4.00
2022-11-24T17:04:49.446Z,4.35
2022-11-24T17:10:05.381Z,3.78
2022-11-24T17:12:38.622Z,3.80
2022-11-24T17:15:37.925Z,4.28
2022-11-24T17:18:28.363Z,3.45
2022-11-24T17:21:07.821Z,3.78
2022-11-24T17:23:59.854Z,3.80
2022-11-24T17:26:30.643Z,3.95
2022-11-24T17:29:01.326Z,3.63
2022-11-24T17:31:37.761Z,3.78
2022-11-24T17:34:10.118Z,4.50
2022-11-24T17:37:01.663Z,4.50
2022-11-24T17:39:31.915Z,4.00
2022-11-24T17:42:02.246Z,4.10
2022-11-24T17:44:33.056Z,4.38
2022-11-24T17:47:03.596Z,4.75
2022-11-24T17:49:33.887Z,4.55
2022-11-24T17:52:04.198Z,4.40
2022-11-24T17:54:49.735Z,4.63
2022-11-24T17:57:20.030Z,4.10
2022-11-24T17:59:50.375Z,4.50
2022-11-24T18:02:20.844Z,5.13
2022-11-24T18:04:52.106Z,3.70
2022-11-24T18:07:40.490Z,5.05
2022-11-24T18:10:28.850Z,4.05
2022-11-24T18:12:59.668Z,4.45
2022-11-24T18:15:29.875Z,4.82
2022-11-24T18:18:00.102Z,4.75
2022-11-24T18:20:31.249Z,4.53
2022-11-24T18:23:05.908Z,5.07
2022-11-24T18:25:39.352Z,4.32
2022-11-24T18:28:10.615Z,4.95
2022-11-24T18:30:40.815Z,4.45
2022-11-24T18:33:11.392Z,4.73
2022-11-24T18:35:43.197Z,4.63
2022-11-24T18:38:13.626Z,4.72
2022-11-24T18:40:44.116Z,4.90
2022-11-24T18:43:14.482Z,4.43
2022-11-24T18:45:44.603Z,4.07
2022-11-24T18:48:14.630Z,4.68
2022-11-24T18:50:45.491Z,4.93
2022-11-24T18:53:15.543Z,4.27
2022-11-24T18:55:46.087Z,5.07
2022-11-24T18:58:17.264Z,4.80
2022-11-24T19:00:47.732Z,5.07
2022-11-24T19:03:18.075Z,4.87
2022-11-24T19:05:48.443Z,5.25
2022-11-24T19:08:18.732Z,4.90
2022-11-24T19:10:49.764Z,4.68
2022-11-24T19:13:20.360Z,5.03
2022-11-24T19:15:51.724Z,5.60
2022-11-24T19:20:52.488Z,4.80
2022-11-24T19:23:22.709Z,5.30
2022-11-24T19:25:52.963Z,4.80
2022-11-24T19:28:23.242Z,4.63
2022-11-24T19:30:53.544Z,4.55
2022-11-24T19:33:23.820Z,4.35
2022-11-24T19:36:05.631Z,4.80
2022-11-24T19:38:37.393Z,4.97
2022-11-24T19:41:13.260Z,5.00
2022-11-24T19:43:44.076Z,4.47
2022-11-24T19:46:16.184Z,5.22
2022-11-24T19:48:49.522Z,5.45
2022-11-24T19:51:23.808Z,5.18
2022-11-24T19:53:54.286Z,5.28
2022-11-24T19:56:26.626Z,5.22
2022-11-24T19:58:57.899Z,5.68
2022-11-24T20:01:33.692Z,5.75
2022-11-24T20:04:06.815Z,5.30
2022-11-24T20:06:42.184Z,5.35
2022-11-24T20:09:14.417Z,5.15
2022-11-24T20:11:45.256Z,5.97
2022-11-24T20:14:17.622Z,6.13
2022-11-24T20:16:49.850Z,4.97
2022-11-24T20:19:21.118Z,5.15
2022-11-24T20:21:52.442Z,6.05
2022-11-24T20:26:58.540Z,5.60
2022-11-24T20:29:30.526Z,6.10
2022-11-24T20:32:00.859Z,5.78
2022-11-24T20:34:31.285Z,5.65
2022-11-24T20:37:01.555Z,5.20
2022-11-24T20:39:31.895Z,4.95
2022-11-24T20:42:01.928Z,4.50
2022-11-24T20:44:32.632Z,5.40
2022-11-24T20:47:05.063Z,6.03
2022-11-24T20:49:35.329Z,5.50
2022-11-24T20:52:05.656Z,5.25
2022-11-24T20:54:36.172Z,4.65
2022-11-24T20:57:06.661Z,5.47
2022-11-24T20:59:36.943Z,5.32
2022-11-24T21:02:07.289Z,5.88
2022-11-24T21:04:38.845Z,5.53
2022-11-24T21:07:09.254Z,5.50
2022-11-24T21:09:40.418Z,5.93
2022-11-24T21:12:10.666Z,5.85
2022-11-24T21:14:41.035Z,5.45
2022-11-24T21:17:11.425Z,5.50
2022-11-24T21:19:41.615Z,5.22
2022-11-24T21:22:11.710Z,5.63
2022-11-24T21:24:41.786Z,6.05
2022-11-24T21:27:11.867Z,6.78
2022-11-24T21:29:41.843Z,6.15
2022-11-24T21:32:13.156Z,7.03
2022-11-24T21:34:43.405Z,6.22
2022-11-24T21:37:13.700Z,6.03
2022-11-24T21:39:46.745Z,7.18
2022-11-24T21:42:17.107Z,6.40
2022-11-24T21:44:47.395Z,6.90
2022-11-24T21:47:17.480Z,6.25
2022-11-24T21:49:47.543Z,7.28
2022-11-24T21:52:18.159Z,6.07
2022-11-24T21:54:48.204Z,7.22
2022-11-24T21:57:18.463Z,7.63
2022-11-24T21:59:48.622Z,6.80
2022-11-24T22:02:18.979Z,8.05
2022-11-24T22:04:49.049Z,6.68
2022-11-24T22:07:19.610Z,6.93
2022-11-24T22:09:51.301Z,7.53
2022-11-24T22:12:21.349Z,7.07
2022-11-24T22:14:51.468Z,7.60
2022-11-24T22:17:21.720Z,7.15
2022-11-24T22:19:51.908Z,7.45
2022-11-24T22:22:22.382Z,7.37
2022-11-24T22:24:52.573Z,7.57
2022-11-24T22:27:23.050Z,7.40
2022-11-24T22:29:54.314Z,8.53
2022-11-24T22:32:24.697Z,8.88
2022-11-24T22:34:54.735Z,9.55
2022-11-24T22:37:25.041Z,10.68
2022-11-24T22:39:55.239Z,10.85
2022-11-24T22:42:25.872Z,11.63
2022-11-24T22:44:56.278Z,11.52
2022-11-24T22:47:26.311Z,11.40
2022-11-24T22:49:56.493Z,10.55
2022-11-24T22:54:57.947Z,13.07
